This is the latest recevied weather packets stored in our database for station/object KD2FKI. If no packets are shown the sender has not sent any weather packets the latest 1 day(s).
| Time | Temp. | Humidity | Pressure | Rain* | Wind** | Luminosity | Snow |
|---|---|---|---|---|---|---|---|
| 1778100647 | 22.78° C | 77% | - | 0 mm | - | - | - |
| 1778099446 | 21.67° C | 79% | - | 0 mm | - | - | - |
| 1778096447 | 21.67° C | 79% | - | 0 mm | - | - | - |
| 1778094634 | 22.22° C | 77% | - | 0 mm | - | - | - |
| 1778092232 | 20° C | 83% | - | 0 mm | - | - | - |
| 1778089843 | 20° C | 83% | - | 0 mm | - | - | - |
| 1778087438 | 19.44° C | 87% | - | 0 mm | - | - | - |
| 1778085645 | 18.89° C | 90% | - | 0 mm | - | - | - |
| 1778082646 | 17.22° C | 96% | - | 0.25 mm | - | - | - |
| 1778079633 | 16.11° C | 99% | - | 0.76 mm | - | - | - |
| 1778079039 | 16.11° C | 99% | - | 0.76 mm | - | - | - |
| 1778077836 | 16.11° C | 99% | - | 1.02 mm | - | - | - |
| 1778076634 | 16.11° C | 99% | - | 2.03 mm | - | - | - |
| 1778076042 | 15.56° C | 99% | - | 2.29 mm | - | - | - |
| 1778073637 | 16.11° C | 99% | - | 1.78 mm | - | - | - |
| 1778072434 | 16.11° C | 98% | - | 1.27 mm | - | - | - |
| 1778071843 | 16.11° C | 98% | - | 1.27 mm | - | - | - |
| 1778071235 | 16.11° C | 97% | - | 1.02 mm | - | - | - |
| 1778070030 | 16.67° C | 96% | - | 0.76 mm | - | - | - |
| 1778068235 | 17.22° C | 90% | - | 0 mm | - | - | - |
| 1778067033 | 17.78° C | 84% | - | 0 mm | - | - | - |
| 1778065832 | 18.33° C | 78% | - | 0 mm | - | - | - |
| 1778065238 | 18.33° C | 78% | - | 0 mm | - | - | - |
| 1778063463 | 18.89° C | 74% | - | 0 mm | - | - | - |
| 1778062834 | 18.89° C | 74% | - | 0 mm | - | - | - |
* Rain latest hour (hover to see other rain measurements)
** Current wind speed in m/s (hover to see current wind gust speed)